createdAt,value
2019-05-21T00:00:29.629Z,88.90
2019-05-21T00:03:28.406Z,102.38
2019-05-21T00:06:25.751Z,119.67
2019-05-21T00:09:23.363Z,91.35
2019-05-21T00:12:20.134Z,103.40
2019-05-21T00:15:16.561Z,98.85
2019-05-21T00:18:12.689Z,109.97
2019-05-21T00:21:08.997Z,102.07
2019-05-21T00:24:04.734Z,124.78
2019-05-21T00:27:02.208Z,108.60
2019-05-21T00:30:33.349Z,111.25
2019-05-21T00:34:04.307Z,97.22
2019-05-21T00:37:38.100Z,100.92
2019-05-21T00:41:08.452Z,99.72
2019-05-21T00:44:06.835Z,105.45
2019-05-21T00:47:05.160Z,88.80
2019-05-21T00:50:03.471Z,94.92
2019-05-21T00:53:00.942Z,82.27
2019-05-21T00:55:58.874Z,107.78
2019-05-21T00:58:57.117Z,102.05
2019-05-21T01:01:52.622Z,120.42
2019-05-21T01:04:59.542Z,93.97
2019-05-21T01:07:44.092Z,113.65
2019-05-21T01:10:40.744Z,87.33
2019-05-21T01:13:37.842Z,102.53
2019-05-21T01:16:34.070Z,70.30
2019-05-21T01:19:29.661Z,73.50
2019-05-21T01:22:25.371Z,76.97
2019-05-21T01:25:20.755Z,71.62
2019-05-21T01:28:16.488Z,82.35
2019-05-21T01:31:11.949Z,74.17
2019-05-21T01:34:09.557Z,73.02
2019-05-21T01:37:03.810Z,90.15
2019-05-21T01:39:59.514Z,82.10
2019-05-21T01:42:54.844Z,97.75
2019-05-21T01:45:50.182Z,101.18
2019-05-21T01:48:45.546Z,94.20
2019-05-21T01:51:41.087Z,71.85
2019-05-21T01:54:36.543Z,92.22
2019-05-21T01:57:31.964Z,80.47
2019-05-21T02:00:27.368Z,95.38
2019-05-21T02:03:22.535Z,97.27
2019-05-21T02:06:17.981Z,100.78
2019-05-21T02:09:14.237Z,84.45
2019-05-21T02:12:10.957Z,98.82
2019-05-21T02:15:06.770Z,109.00
2019-05-21T02:18:02.100Z,93.25
2019-05-21T02:20:57.613Z,114.03
2019-05-21T02:23:53.341Z,110.10
2019-05-21T02:26:51.520Z,121.42
2019-05-21T02:29:47.180Z,123.35
2019-05-21T02:32:42.660Z,113.08
2019-05-21T02:35:53.783Z,118.87
2019-05-21T02:38:34.741Z,125.53
2019-05-21T02:41:31.791Z,123.62
2019-05-21T02:44:27.668Z,115.32
2019-05-21T02:47:23.732Z,133.25
2019-05-21T02:50:20.988Z,127.97
2019-05-21T02:53:17.125Z,129.18
2019-05-21T02:56:14.477Z,118.95
2019-05-21T02:59:11.369Z,128.12
2019-05-21T03:02:16.416Z,131.93
2019-05-21T03:05:13.542Z,122.60
2019-05-21T03:08:10.075Z,152.35
2019-05-21T03:11:05.777Z,158.07
2019-05-21T03:14:01.324Z,151.22
2019-05-21T03:16:56.384Z,164.37
2019-05-21T03:19:51.801Z,175.25
2019-05-21T03:22:49.351Z,152.82
2019-05-21T03:25:46.425Z,164.55
2019-05-21T03:28:44.372Z,159.60
2019-05-21T03:31:41.861Z,161.70
2019-05-21T03:34:39.324Z,153.97
2019-05-21T03:37:35.926Z,146.40
2019-05-21T03:40:32.983Z,155.80
2019-05-21T03:43:31.334Z,152.12
2019-05-21T03:46:28.638Z,153.12
2019-05-21T03:49:26.764Z,126.60
2019-05-21T03:52:22.243Z,121.42
2019-05-21T03:55:20.393Z,133.20
2019-05-21T03:58:17.458Z,117.93
2019-05-21T04:01:14.089Z,107.72
2019-05-21T04:04:10.507Z,117.17
2019-05-21T04:07:07.989Z,130.18
2019-05-21T04:10:07.816Z,127.70
2019-05-21T04:13:11.646Z,122.17
2019-05-21T04:16:18.042Z,121.10
2019-05-21T04:19:31.633Z,125.35
2019-05-21T04:22:28.086Z,117.50
2019-05-21T04:25:24.091Z,109.32
2019-05-21T04:28:20.110Z,106.12
2019-05-21T04:31:16.132Z,104.90
2019-05-21T04:34:12.942Z,115.85
2019-05-21T04:37:11.283Z,113.45
2019-05-21T04:40:05.986Z,155.12
2019-05-21T04:43:02.778Z,150.87
2019-05-21T04:46:07.333Z,164.75
2019-05-21T04:49:03.468Z,161.90
2019-05-21T04:52:07.758Z,191.80
2019-05-21T04:55:12.458Z,162.90
2019-05-21T04:58:28.751Z,153.82
2019-05-21T05:01:26.771Z,128.02
2019-05-21T05:04:33.135Z,147.47
2019-05-21T05:07:37.325Z,148.65
2019-05-21T05:10:34.503Z,108.52
2019-05-21T05:13:32.714Z,127.15
2019-05-21T05:17:22.020Z,121.20
2019-05-21T05:20:22.124Z,91.35
2019-05-21T05:23:24.975Z,102.90
2019-05-21T05:26:25.977Z,118.60
2019-05-21T05:29:23.092Z,109.95
2019-05-21T05:32:20.014Z,88.80
2019-05-21T05:35:19.314Z,99.13
2019-05-21T05:38:18.807Z,117.15
2019-05-21T05:41:19.826Z,96.90
2019-05-21T05:44:51.561Z,81.15
2019-05-21T05:48:24.307Z,81.92
2019-05-21T05:51:22.170Z,98.15
2019-05-21T05:54:32.965Z,85.03
2019-05-21T05:57:42.271Z,88.22
2019-05-21T06:00:37.657Z,91.00
2019-05-21T06:03:34.644Z,74.40
2019-05-21T06:06:35.955Z,75.65
2019-05-21T06:09:32.707Z,68.20
2019-05-21T06:12:29.041Z,84.58
2019-05-21T06:15:25.540Z,86.63
2019-05-21T06:18:22.378Z,75.75
2019-05-21T06:21:21.994Z,69.45
2019-05-21T06:24:19.305Z,69.80
2019-05-21T06:27:15.281Z,75.97
2019-05-21T06:30:11.900Z,77.97
2019-05-21T06:33:06.989Z,58.28
2019-05-21T06:36:04.398Z,84.77
2019-05-21T06:39:02.229Z,91.57
2019-05-21T06:41:58.180Z,70.52
2019-05-21T06:44:54.327Z,77.37
2019-05-21T06:47:52.517Z,73.33
2019-05-21T06:50:48.225Z,81.05
2019-05-21T06:53:43.635Z,76.33
2019-05-21T06:56:38.746Z,76.25
2019-05-21T06:59:33.902Z,78.15
2019-05-21T07:02:29.655Z,88.33
2019-05-21T07:05:25.105Z,85.42
2019-05-21T07:08:34.791Z,82.05
2019-05-21T07:11:23.476Z,69.75
2019-05-21T07:14:18.887Z,64.67
2019-05-21T07:17:14.837Z,66.60
2019-05-21T07:20:12.231Z,75.60
2019-05-21T07:23:11.282Z,55.23
2019-05-21T07:26:05.143Z,72.90
2019-05-21T07:29:01.523Z,78.67
2019-05-21T07:31:58.447Z,67.75
2019-05-21T07:35:16.207Z,64.25
2019-05-21T07:38:23.699Z,79.80
2019-05-21T07:41:20.297Z,61.10
2019-05-21T07:44:14.966Z,70.52
2019-05-21T07:47:11.324Z,66.07
2019-05-21T07:50:07.914Z,69.05
2019-05-21T07:53:03.958Z,68.92
2019-05-21T07:55:59.899Z,53.70
2019-05-21T07:58:55.383Z,64.62
2019-05-21T08:01:51.623Z,47.98
2019-05-21T08:04:47.209Z,57.08
2019-05-21T08:07:47.360Z,67.85
2019-05-21T08:10:43.677Z,47.38
2019-05-21T08:13:38.907Z,51.20
2019-05-21T08:16:34.834Z,50.00
2019-05-21T08:19:31.321Z,54.60
2019-05-21T08:22:28.491Z,47.60
2019-05-21T08:25:28.172Z,66.12
2019-05-21T08:28:24.412Z,71.10
2019-05-21T08:31:19.628Z,64.17
2019-05-21T08:34:19.763Z,70.52
2019-05-21T08:37:17.107Z,63.73
2019-05-21T08:40:13.971Z,78.50
2019-05-21T08:43:09.560Z,65.15
2019-05-21T08:46:05.059Z,75.20
2019-05-21T08:49:01.539Z,70.50
2019-05-21T08:51:57.040Z,63.75
2019-05-21T08:54:56.732Z,60.35
2019-05-21T08:58:06.194Z,61.45
2019-05-21T09:01:17.678Z,78.17
2019-05-21T09:04:15.855Z,62.70
2019-05-21T09:07:12.410Z,58.87
2019-05-21T09:10:11.999Z,81.72
2019-05-21T09:13:24.664Z,71.25
2019-05-21T09:33:44.511Z,64.42
2019-05-21T09:36:42.769Z,72.20
2019-05-21T09:39:46.344Z,61.15
2019-05-21T09:43:09.107Z,54.18
2019-05-21T09:46:14.572Z,58.52
2019-05-21T09:49:13.306Z,65.05
2019-05-21T09:52:11.659Z,52.35
2019-05-21T09:55:08.292Z,66.28
2019-05-21T09:58:22.249Z,66.22
2019-05-21T10:01:41.894Z,63.68
2019-05-21T10:04:40.423Z,66.25
2019-05-21T10:07:40.673Z,57.65
2019-05-21T10:10:38.133Z,75.92
2019-05-21T10:13:40.730Z,83.15
2019-05-21T10:16:35.920Z,62.78
2019-05-21T10:19:38.100Z,57.83
2019-05-21T10:22:36.522Z,50.70
2019-05-21T10:25:34.571Z,48.98
2019-05-21T10:28:32.822Z,59.05
2019-05-21T10:31:29.737Z,49.40
2019-05-21T10:34:25.393Z,57.23
2019-05-21T10:37:21.496Z,68.33
2019-05-21T10:40:19.653Z,59.75
2019-05-21T10:43:20.715Z,55.25
2019-05-21T10:46:19.370Z,58.15
2019-05-21T10:49:17.135Z,56.48
2019-05-21T10:52:13.921Z,64.55
2019-05-21T10:55:15.973Z,59.80
2019-05-21T10:58:14.039Z,60.67
2019-05-21T11:01:49.373Z,64.00
2019-05-21T11:05:07.747Z,59.00
2019-05-21T11:08:29.824Z,63.58
2019-05-21T11:11:39.755Z,65.70
2019-05-21T11:14:39.112Z,54.75
2019-05-21T11:17:50.064Z,66.75
2019-05-21T11:20:38.538Z,59.42
2019-05-21T11:23:38.569Z,46.53
2019-05-21T11:26:37.308Z,63.78
2019-05-21T11:29:40.016Z,85.65
2019-05-21T11:32:39.477Z,75.92
2019-05-21T11:35:37.580Z,52.40
2019-05-21T11:38:39.842Z,46.98
2019-05-21T11:41:29.611Z,60.88
2019-05-21T11:44:25.333Z,60.78
2019-05-21T11:47:30.683Z,60.15
2019-05-21T11:50:25.345Z,64.87
2019-05-21T11:53:26.372Z,59.27
2019-05-21T11:56:31.267Z,68.30
2019-05-21T11:59:27.118Z,69.75
2019-05-21T12:02:24.964Z,52.75
2019-05-21T12:05:22.841Z,61.92
2019-05-21T12:08:20.411Z,55.95
2019-05-21T12:11:53.787Z,58.90
2019-05-21T12:14:57.621Z,48.30
2019-05-21T12:17:54.345Z,44.95
2019-05-21T12:20:51.832Z,49.08
2019-05-21T12:23:47.605Z,65.30
2019-05-21T12:26:43.974Z,54.45
2019-05-21T12:29:44.646Z,62.85
2019-05-21T12:32:40.948Z,75.78
2019-05-21T12:35:37.220Z,71.20
2019-05-21T12:38:33.554Z,57.88
2019-05-21T12:41:29.961Z,48.58
2019-05-21T12:44:25.864Z,45.80
2019-05-21T12:47:22.530Z,56.10
2019-05-21T12:50:20.359Z,56.30
2019-05-21T12:53:16.818Z,65.22
2019-05-21T12:56:16.163Z,56.05
2019-05-21T12:59:10.982Z,56.60
2019-05-21T13:02:07.728Z,64.95
2019-05-21T13:05:04.087Z,74.60
2019-05-21T13:08:00.926Z,126.67
2019-05-21T13:10:57.926Z,84.75
2019-05-21T13:13:54.198Z,110.32
2019-05-21T13:16:52.282Z,82.62
2019-05-21T13:19:48.990Z,79.10
2019-05-21T13:22:45.571Z,68.87
2019-05-21T13:25:58.902Z,75.00
2019-05-21T13:29:00.653Z,64.17
2019-05-21T13:32:17.596Z,54.33
2019-05-21T13:35:16.748Z,62.85
2019-05-21T13:38:16.134Z,51.55
2019-05-21T13:41:13.584Z,50.65
2019-05-21T13:44:11.381Z,61.65
2019-05-21T13:47:07.799Z,59.83
2019-05-21T13:50:03.234Z,48.98
2019-05-21T13:52:59.150Z,46.73
2019-05-21T13:55:55.186Z,63.13
2019-05-21T13:58:51.744Z,54.45
2019-05-21T14:01:47.646Z,56.92
2019-05-21T14:04:43.274Z,58.23
2019-05-21T14:07:38.628Z,55.50
2019-05-21T14:10:34.289Z,51.15
2019-05-21T14:13:29.626Z,56.68
2019-05-21T14:16:25.673Z,55.95
2019-05-21T14:19:21.425Z,51.80
2019-05-21T14:22:19.760Z,49.42
2019-05-21T14:25:17.683Z,63.50
2019-05-21T14:28:13.097Z,57.33
2019-05-21T14:31:08.866Z,55.40
2019-05-21T14:34:04.353Z,51.00
2019-05-21T14:36:59.918Z,51.50
2019-05-21T14:39:55.417Z,52.90
2019-05-21T14:42:59.894Z,44.15
2019-05-21T14:45:47.586Z,58.02
2019-05-21T14:48:43.084Z,49.55
2019-05-21T14:51:38.662Z,47.67
2019-05-21T14:54:33.890Z,47.90
2019-05-21T14:57:29.333Z,48.40
2019-05-21T15:00:32.101Z,45.10
2019-05-21T15:03:29.490Z,44.53
2019-05-21T15:06:27.056Z,64.35
2019-05-21T15:09:22.933Z,43.00
2019-05-21T15:12:18.394Z,48.48
2019-05-21T15:15:14.436Z,41.50
2019-05-21T15:18:10.296Z,44.33
2019-05-21T15:21:16.297Z,48.10
2019-05-21T15:24:12.191Z,41.28
2019-05-21T15:27:07.751Z,49.33
2019-05-21T15:30:04.179Z,50.88
2019-05-21T15:33:00.363Z,49.20
2019-05-21T15:35:57.598Z,42.05
2019-05-21T15:38:53.726Z,43.80
2019-05-21T15:41:49.026Z,41.80
2019-05-21T15:44:44.797Z,38.70
2019-05-21T15:47:40.780Z,48.73
2019-05-21T15:50:36.405Z,40.83
2019-05-21T15:53:32.141Z,36.03
2019-05-21T15:56:29.303Z,39.92
2019-05-21T15:59:25.193Z,41.70
2019-05-21T16:02:20.758Z,42.03
2019-05-21T16:05:16.165Z,40.80
2019-05-21T16:08:12.426Z,44.50
2019-05-21T16:11:07.800Z,42.10
2019-05-21T16:14:03.060Z,46.53
2019-05-21T16:16:58.385Z,39.20
2019-05-21T16:19:54.580Z,35.70
2019-05-21T16:22:51.295Z,34.20
2019-05-21T16:25:47.526Z,35.55
2019-05-21T16:28:43.725Z,32.80
2019-05-21T16:31:39.580Z,38.25
2019-05-21T16:34:35.501Z,38.98
2019-05-21T16:37:33.854Z,35.90
2019-05-21T16:40:29.582Z,30.90
2019-05-21T16:43:24.835Z,33.55
2019-05-21T16:46:20.237Z,36.17
2019-05-21T16:49:15.289Z,31.77
2019-05-21T16:52:10.852Z,39.30
2019-05-21T16:55:07.883Z,39.60
2019-05-21T16:58:03.811Z,30.88
2019-05-21T17:00:59.344Z,32.63
2019-05-21T17:03:59.864Z,32.78
2019-05-21T17:06:50.742Z,33.85
2019-05-21T17:09:45.908Z,36.65
2019-05-21T17:12:41.401Z,35.50
2019-05-21T17:15:36.594Z,33.25
2019-05-21T17:18:31.890Z,32.03
2019-05-21T17:21:27.599Z,30.17
2019-05-21T17:24:22.927Z,28.67
2019-05-21T17:27:18.500Z,29.72
2019-05-21T17:30:15.592Z,39.90
2019-05-21T17:33:11.254Z,31.90
2019-05-21T17:36:06.291Z,36.40
2019-05-21T17:39:01.849Z,34.03
2019-05-21T17:41:58.770Z,25.88
2019-05-21T17:44:54.242Z,32.83
2019-05-21T17:47:49.955Z,34.63
2019-05-21T17:50:45.276Z,36.33
2019-05-21T17:53:40.455Z,37.93
2019-05-21T17:56:37.608Z,33.28
2019-05-21T17:59:32.815Z,33.28
2019-05-21T18:02:30.391Z,30.37
2019-05-21T18:05:26.533Z,36.75
2019-05-21T18:08:22.797Z,31.90
2019-05-21T18:11:19.564Z,33.15
2019-05-21T18:14:15.424Z,33.60
2019-05-21T18:17:14.169Z,37.85
2019-05-21T18:20:11.041Z,38.50
2019-05-21T18:23:07.227Z,36.93
2019-05-21T18:26:04.245Z,34.30
2019-05-21T18:29:01.299Z,33.70
2019-05-21T18:31:56.916Z,41.77
2019-05-21T18:34:51.949Z,41.00
2019-05-21T18:37:47.180Z,33.38
2019-05-21T18:40:42.197Z,40.85
2019-05-21T18:43:37.535Z,43.78
2019-05-21T18:46:32.743Z,40.15
2019-05-21T18:49:27.984Z,35.83
2019-05-21T18:52:24.155Z,32.40
2019-05-21T18:55:19.388Z,35.20
2019-05-21T18:58:17.103Z,43.25
2019-05-21T19:01:10.313Z,38.30
2019-05-21T19:04:06.393Z,34.92
2019-05-21T19:07:01.756Z,37.65
2019-05-21T19:10:00.738Z,30.90
2019-05-21T19:12:54.226Z,46.15
2019-05-21T19:15:49.819Z,35.80
2019-05-21T19:18:46.171Z,37.63
2019-05-21T19:21:42.181Z,43.58
2019-05-21T19:24:37.111Z,36.83
2019-05-21T19:27:32.590Z,39.18
2019-05-21T19:30:28.924Z,35.40
2019-05-21T19:33:24.238Z,30.10
2019-05-21T19:36:19.267Z,33.98
2019-05-21T19:39:13.920Z,32.38
2019-05-21T19:42:08.828Z,34.03
2019-05-21T19:45:03.825Z,28.65
2019-05-21T19:47:59.000Z,30.50
2019-05-21T19:50:54.158Z,39.80
2019-05-21T19:53:49.131Z,31.52
2019-05-21T19:56:44.279Z,36.63
2019-05-21T19:59:40.628Z,30.70
2019-05-21T20:02:36.400Z,39.55
2019-05-21T20:05:31.753Z,62.03
2019-05-21T20:08:27.377Z,36.35
2019-05-21T20:11:22.823Z,35.43
2019-05-21T20:14:17.627Z,33.38
2019-05-21T20:17:13.190Z,30.12
2019-05-21T20:20:08.625Z,35.73
2019-05-21T20:23:03.836Z,29.87
2019-05-21T20:25:59.767Z,37.80
2019-05-21T20:28:55.096Z,45.30
2019-05-21T20:31:50.692Z,61.63
2019-05-21T20:34:45.803Z,48.98
2019-05-21T20:37:42.093Z,124.92
2019-05-21T20:40:38.147Z,50.90
2019-05-21T20:43:33.670Z,173.75
2019-05-21T20:46:28.874Z,50.63
2019-05-21T20:49:24.165Z,52.60
2019-05-21T20:52:19.786Z,51.98
2019-05-21T20:55:15.295Z,48.80
2019-05-21T20:58:10.774Z,49.27
2019-05-21T21:01:06.751Z,44.53
2019-05-21T21:04:02.506Z,78.72
2019-05-21T21:06:57.796Z,46.18
2019-05-21T21:09:53.102Z,74.82
2019-05-21T21:12:48.817Z,51.23
2019-05-21T21:15:44.539Z,37.63
2019-05-21T21:18:39.396Z,46.20
2019-05-21T21:21:34.436Z,41.63
2019-05-21T21:24:29.522Z,45.03
2019-05-21T21:27:25.097Z,38.78
2019-05-21T21:30:20.278Z,51.73
2019-05-21T21:33:15.518Z,48.20
2019-05-21T21:36:10.575Z,52.15
2019-05-21T21:39:06.634Z,54.27
2019-05-21T21:42:02.349Z,53.08
2019-05-21T21:44:57.419Z,45.60
2019-05-21T21:47:52.733Z,53.30
2019-05-21T21:50:48.079Z,49.70
2019-05-21T21:53:43.602Z,43.45
2019-05-21T21:56:38.691Z,43.55
2019-05-21T21:59:33.717Z,43.28
2019-05-21T22:02:32.502Z,45.20
2019-05-21T22:05:28.084Z,52.55
2019-05-21T22:08:23.509Z,45.63
2019-05-21T22:11:19.149Z,48.35
2019-05-21T22:14:15.245Z,54.03
2019-05-21T22:17:13.615Z,59.77
2019-05-21T22:20:10.573Z,65.97
2019-05-21T22:23:05.658Z,73.05
2019-05-21T22:26:00.977Z,73.35
2019-05-21T22:28:56.238Z,60.90
2019-05-21T22:31:51.653Z,52.13
2019-05-21T22:34:46.604Z,60.78
2019-05-21T22:37:41.778Z,51.65
2019-05-21T22:40:36.861Z,48.48
2019-05-21T22:43:32.838Z,50.55
2019-05-21T22:46:28.044Z,52.98
2019-05-21T22:49:23.253Z,48.38
2019-05-21T22:52:18.343Z,35.48
2019-05-21T22:55:14.221Z,38.42
2019-05-21T22:58:09.338Z,37.93
2019-05-21T23:01:05.205Z,31.73
2019-05-21T23:04:00.514Z,32.70
2019-05-21T23:06:55.997Z,38.83
2019-05-21T23:09:51.245Z,35.73
2019-05-21T23:12:46.104Z,32.25
2019-05-21T23:15:41.751Z,41.08
2019-05-21T23:18:47.356Z,34.20
2019-05-21T23:22:01.223Z,38.53
2019-05-21T23:24:56.584Z,34.08
2019-05-21T23:27:51.646Z,42.85
2019-05-21T23:30:46.471Z,37.95
2019-05-21T23:33:41.809Z,38.80
2019-05-21T23:36:37.108Z,36.28
2019-05-21T23:39:34.141Z,33.10
2019-05-21T23:42:30.295Z,35.23
2019-05-21T23:45:26.024Z,44.83
2019-05-21T23:48:22.027Z,36.83
2019-05-21T23:51:19.172Z,41.35
2019-05-21T23:54:15.382Z,36.45
2019-05-21T23:57:12.611Z,32.67
